Time;durP1;ratioP1;P1;durP2;ratioP2;P2;SDS_P1;SDS_P2;PMS_P1;PMS_P2;Temp;Humidity;BMP_temperature;BMP_pressure;BME280_temperature;BME280_humidity;BME280_pressure;Samples;Min_cycle;Max_cycle;Signal;HPM_P1;HPM_P2
2023/03/23 00:01:20;;;;;;;15.73;10.57;;;;;;;;;;5019514;28;20038;-70
2023/03/23 00:03:51;;;;;;;21.40;11.30;;;;;;;;;;5012841;28;20040;-70
2023/03/23 00:06:20;;;;;;;18.73;12.82;;;;;;;;;;5011441;28;20491;-69
2023/03/23 00:08:50;;;;;;;20.85;12.43;;;;;;;;;;5012232;28;20026;-70
2023/03/23 00:11:19;;;;;;;17.13;11.15;;;;;;;;;;5011574;28;20101;-70
2023/03/23 00:13:47;;;;;;;18.58;11.90;;;;;;;;;;5011535;28;20018;-70
2023/03/23 00:16:19;;;;;;;16.83;11.13;;;;;;;;;;5010685;28;20034;-70
2023/03/23 00:18:53;;;;;;;14.73;9.80;;;;;;;;;;5012007;28;20044;-70
2023/03/23 00:21:20;;;;;;;14.23;10.05;;;;;;;;;;5012046;28;20045;-70
2023/03/23 00:23:49;;;;;;;15.65;9.63;;;;;;;;;;5011919;28;20034;-70
2023/03/23 00:26:18;;;;;;;19.52;11.40;;;;;;;;;;5012170;28;20487;-70
2023/03/23 00:28:46;;;;;;;18.23;10.75;;;;;;;;;;5011284;28;20044;-70
2023/03/23 00:31:13;;;;;;;16.60;11.13;;;;;;;;;;5022059;28;20030;-70
2023/03/23 00:33:42;;;;;;;18.98;10.50;;;;;;;;;;4994300;28;20041;-70
2023/03/23 00:36:13;;;;;;;18.27;11.82;;;;;;;;;;4995395;28;20189;-70
2023/03/23 00:38:43;;;;;;;;;;;;;;;;;;4995833;28;20048;-70
2023/03/23 00:41:11;;;;;;;20.48;12.27;;;;;;;;;;5029528;28;19915;-69
2023/03/23 00:43:38;;;;;;;20.67;12.73;;;;;;;;;;4994583;28;20393;-70
2023/03/23 00:46:09;;;;;;;20.20;12.05;;;;;;;;;;5012281;28;20025;-69
2023/03/23 00:48:40;;;;;;;17.98;11.98;;;;;;;;;;5010838;28;20068;-70
2023/03/23 00:51:10;;;;;;;21.45;12.63;;;;;;;;;;5012356;28;20026;-70
2023/03/23 00:53:36;;;;;;;17.25;11.50;;;;;;;;;;5011340;28;20040;-70
2023/03/23 00:56:01;;;;;;;17.75;11.43;;;;;;;;;;4994928;28;20026;-70
2023/03/23 00:58:28;;;;;;;20.30;12.88;;;;;;;;;;4994531;28;20042;-71
2023/03/23 01:00:53;;;;;;;30.33;13.98;;;;;;;;;;4994256;28;20084;-71
2023/03/23 01:03:19;;;;;;;32.05;13.82;;;;;;;;;;5010914;28;20092;-70
2023/03/23 01:05:51;;;;;;;21.05;12.27;;;;;;;;;;5012470;28;20030;-70
2023/03/23 01:08:18;;;;;;;30.25;14.00;;;;;;;;;;4994623;28;20496;-70
2023/03/23 01:10:45;;;;;;;17.77;12.07;;;;;;;;;;4994198;28;20034;-69
2023/03/23 01:13:11;;;;;;;25.58;14.43;;;;;;;;;;5012238;28;20484;-69
2023/03/23 01:15:37;;;;;;;22.33;13.88;;;;;;;;;;5006039;28;20029;-69
2023/03/23 01:18:04;;;;;;;17.85;12.98;;;;;;;;;;5010669;28;20036;-69
2023/03/23 01:20:31;;;;;;;21.40;13.05;;;;;;;;;;4994092;28;20396;-69
2023/03/23 01:23:02;;;;;;;27.40;13.90;;;;;;;;;;5012001;28;20399;-70
2023/03/23 01:25:30;;;;;;;19.73;12.55;;;;;;;;;;4994641;28;20084;-70
2023/03/23 01:27:56;;;;;;;22.10;12.15;;;;;;;;;;4994312;28;20111;-71
2023/03/23 01:30:23;;;;;;;22.17;12.65;;;;;;;;;;4993695;28;20043;-71
2023/03/23 01:32:48;;;;;;;21.38;12.63;;;;;;;;;;4977940;28;20040;-71
2023/03/23 01:35:14;;;;;;;21.23;12.10;;;;;;;;;;5010006;28;20480;-71
2023/03/23 01:37:40;;;;;;;20.85;12.52;;;;;;;;;;4993917;28;20381;-71
2023/03/23 01:40:07;;;;;;;23.92;13.85;;;;;;;;;;4993631;28;20085;-70
2023/03/23 01:42:35;;;;;;;17.17;12.80;;;;;;;;;;4993860;28;20076;-70
2023/03/23 01:45:19;;;;;;;19.25;12.63;;;;;;;;;;5008681;28;20133;-70
2023/03/23 01:48:04;;;;;;;17.92;12.82;;;;;;;;;;4993675;28;20033;-69
2023/03/23 01:50:36;;;;;;;21.13;13.60;;;;;;;;;;4993778;28;20052;-68
2023/03/23 01:53:08;;;;;;;24.60;14.10;;;;;;;;;;5026282;28;20026;-68
2023/03/23 01:55:36;;;;;;;;;;;;;;;;;;4994466;28;20115;-69
2023/03/23 01:58:02;;;;;;;24.10;13.63;;;;;;;;;;4993953;28;19909;-69
2023/03/23 02:00:30;;;;;;;18.48;13.15;;;;;;;;;;4993892;28;20038;-69
2023/03/23 02:02:56;;;;;;;20.52;13.68;;;;;;;;;;5011549;28;20030;-70
2023/03/23 02:05:40;;;;;;;25.60;14.50;;;;;;;;;;5010295;28;20233;-70
2023/03/23 02:08:14;;;;;;;26.60;14.13;;;;;;;;;;4990595;28;20039;-70
2023/03/23 02:10:40;;;;;;;20.08;13.80;;;;;;;;;;4986836;28;20120;-69
2023/03/23 02:13:09;;;;;;;21.48;14.48;;;;;;;;;;4996582;28;20507;-70
2023/03/23 02:15:59;;;;;;;21.95;15.48;;;;;;;;;;5028183;28;20042;-70
2023/03/23 02:19:06;;;;;;;19.27;14.57;;;;;;;;;;4971756;28;20503;-70
2023/03/23 02:21:46;;;;;;;21.70;14.95;;;;;;;;;;5000024;28;20049;-70
2023/03/23 02:24:27;;;;;;;22.27;15.88;;;;;;;;;;5015252;28;20117;-70
2023/03/23 02:27:08;;;;;;;24.58;15.95;;;;;;;;;;4997295;28;20033;-70
2023/03/23 02:30:07;;;;;;;27.55;18.15;;;;;;;;;;5013262;28;20041;-70
2023/03/23 02:32:48;;;;;;;22.52;15.93;;;;;;;;;;4998588;28;20045;-70
2023/03/23 02:35:21;;;;;;;25.95;15.70;;;;;;;;;;5013781;28;20041;-70
2023/03/23 02:38:15;;;;;;;21.23;14.70;;;;;;;;;;5013650;28;20045;-70
2023/03/23 02:40:45;;;;;;;20.50;14.75;;;;;;;;;;4997044;28;20072;-70
2023/03/23 02:43:19;;;;;;;21.40;14.80;;;;;;;;;;4997050;28;20038;-70
2023/03/23 02:45:46;;;;;;;21.90;15.57;;;;;;;;;;4997124;28;20487;-70
2023/03/23 02:48:16;;;;;;;27.33;17.17;;;;;;;;;;5013383;28;20392;-70
2023/03/23 02:50:47;;;;;;;25.73;18.13;;;;;;;;;;4996363;28;20042;-70
2023/03/23 02:53:17;;;;;;;26.63;18.02;;;;;;;;;;5014622;28;20033;-70
2023/03/23 02:55:44;;;;;;;28.33;19.42;;;;;;;;;;5014641;28;20395;-70
2023/03/23 02:58:15;;;;;;;26.75;17.58;;;;;;;;;;4996916;28;20034;-70
2023/03/23 03:00:44;;;;;;;28.50;18.48;;;;;;;;;;4994930;28;20030;-70
2023/03/23 03:03:15;;;;;;;26.98;17.70;;;;;;;;;;4996323;28;20029;-69
2023/03/23 03:06:04;;;;;;;28.77;19.08;;;;;;;;;;5012886;28;20044;-71
2023/03/23 03:08:54;;;;;;;27.45;18.77;;;;;;;;;;4998988;28;20044;-71
2023/03/23 03:11:27;;;;;;;31.65;20.33;;;;;;;;;;4996759;28;20045;-71
2023/03/23 03:13:53;;;;;;;26.38;18.40;;;;;;;;;;5012984;28;20058;-71
2023/03/23 03:16:45;;;;;;;24.88;18.00;;;;;;;;;;4997112;28;20076;-71
2023/03/23 03:19:27;;;;;;;29.65;17.63;;;;;;;;;;4994949;28;20033;-71
2023/03/23 03:21:57;;;;;;;28.23;16.70;;;;;;;;;;5011288;28;20031;-71
2023/03/23 03:24:31;;;;;;;24.40;15.43;;;;;;;;;;4995320;28;20436;-71
2023/03/23 03:26:59;;;;;;;28.17;16.75;;;;;;;;;;5012469;28;20048;-71
2023/03/23 03:29:37;;;;;;;28.17;16.63;;;;;;;;;;4995984;28;20032;-71
2023/03/23 03:32:06;;;;;;;26.58;18.92;;;;;;;;;;4996344;28;20037;-71
2023/03/23 03:34:33;;;;;;;23.33;17.52;;;;;;;;;;4996554;28;20084;-71
2023/03/23 03:37:00;;;;;;;22.27;15.82;;;;;;;;;;5013703;28;20025;-69
2023/03/23 03:39:27;;;;;;;17.52;12.73;;;;;;;;;;4996875;28;20026;-69
2023/03/23 03:41:54;;;;;;;18.33;12.63;;;;;;;;;;5013208;28;20034;-71
2023/03/23 03:44:20;;;;;;;19.17;12.90;;;;;;;;;;4998778;28;20091;-70
2023/03/23 03:46:46;;;;;;;20.10;12.68;;;;;;;;;;5012790;28;20085;-70
2023/03/23 03:49:12;;;;;;;19.95;13.43;;;;;;;;;;4995343;28;20022;-69
2023/03/23 03:51:40;;;;;;;21.65;13.50;;;;;;;;;;5012373;28;20266;-70
2023/03/23 03:54:10;;;;;;;20.08;13.90;;;;;;;;;;4995851;28;20527;-69
2023/03/23 03:56:40;;;;;;;19.83;13.13;;;;;;;;;;4994340;28;20041;-69
2023/03/23 03:59:37;;;;;;;25.77;15.00;;;;;;;;;;5017852;28;20028;-69
2023/03/23 04:02:23;;;;;;;18.17;13.60;;;;;;;;;;5018108;28;20046;-70
2023/03/23 04:04:52;;;;;;;20.88;13.57;;;;;;;;;;5012908;28;20038;-69
2023/03/23 04:07:18;;;;;;;20.65;13.02;;;;;;;;;;4995328;28;20032;-70
2023/03/23 04:09:48;;;;;;;20.00;12.82;;;;;;;;;;4994941;28;20037;-70
2023/03/23 04:12:17;;;;;;;16.90;12.90;;;;;;;;;;4994556;28;20061;-70
2023/03/23 04:15:09;;;;;;;18.30;11.68;;;;;;;;;;4988545;28;20038;-69
2023/03/23 04:17:35;;;;;;;18.52;12.15;;;;;;;;;;5011172;28;20037;-70
2023/03/23 04:20:08;;;;;;;19.25;12.82;;;;;;;;;;4995210;28;20037;-71
2023/03/23 04:22:34;;;;;;;25.27;14.67;;;;;;;;;;4995529;28;20042;-70
2023/03/23 04:25:05;;;;;;;28.90;15.00;;;;;;;;;;5009894;28;20034;-69
2023/03/23 04:27:32;;;;;;;29.45;16.63;;;;;;;;;;5011272;28;20030;-69
2023/03/23 04:30:02;;;;;;;26.42;15.65;;;;;;;;;;4994551;28;20025;-69
2023/03/23 04:32:41;;;;;;;30.63;14.82;;;;;;;;;;5011307;28;20108;-69
2023/03/23 04:35:11;;;;;;;44.22;16.77;;;;;;;;;;5010174;28;20040;-69
2023/03/23 04:37:42;;;;;;;33.70;14.50;;;;;;;;;;4994586;28;20033;-69
2023/03/23 04:40:14;;;;;;;36.35;14.70;;;;;;;;;;4993813;28;20037;-69
2023/03/23 04:42:46;;;;;;;30.08;16.08;;;;;;;;;;4995557;28;20092;-70
2023/03/23 04:45:28;;;;;;;24.48;14.30;;;;;;;;;;4994307;28;20500;-70
2023/03/23 04:47:57;;;;;;;30.40;15.15;;;;;;;;;;4994266;28;20037;-69
2023/03/23 04:50:32;;;;;;;24.35;14.95;;;;;;;;;;4994513;28;20049;-71
2023/03/23 04:53:06;;;;;;;28.70;14.00;;;;;;;;;;4996151;28;20507;-70
2023/03/23 04:55:36;;;;;;;28.50;12.95;;;;;;;;;;4994722;28;20042;-70
2023/03/23 04:58:05;;;;;;;20.58;11.82;;;;;;;;;;4994223;28;20121;-70
2023/03/23 05:00:49;;;;;;;26.58;11.45;;;;;;;;;;4993947;28;20044;-70
2023/03/23 05:03:19;;;;;;;13.20;10.20;;;;;;;;;;4994293;28;20034;-70
2023/03/23 05:05:51;;;;;;;16.38;10.00;;;;;;;;;;5010711;28;20698;-70
2023/03/23 05:08:20;;;;;;;14.65;9.95;;;;;;;;;;5010083;28;20030;-70
2023/03/23 05:10:57;;;;;;;16.10;9.82;;;;;;;;;;4993810;28;20029;-68
2023/03/23 05:13:28;;;;;;;15.68;9.25;;;;;;;;;;5011662;28;20030;-70
2023/03/23 05:15:57;;;;;;;23.77;9.88;;;;;;;;;;4990050;28;20069;-70
2023/03/23 05:18:23;;;;;;;20.15;10.90;;;;;;;;;;4993752;28;20511;-70
2023/03/23 05:20:52;;;;;;;15.38;9.43;;;;;;;;;;5011406;28;20036;-70
2023/03/23 05:23:24;;;;;;;14.68;9.73;;;;;;;;;;4983948;28;20043;-70
2023/03/23 05:26:00;;;;;;;18.05;10.23;;;;;;;;;;5023118;28;20036;-69
2023/03/23 05:28:28;;;;;;;15.02;9.77;;;;;;;;;;4993304;28;20052;-69
2023/03/23 05:31:04;;;;;;;27.23;10.75;;;;;;;;;;4990473;28;20049;-69
2023/03/23 05:33:32;;;;;;;20.98;9.73;;;;;;;;;;4990827;28;20511;-69
2023/03/23 05:35:57;;;;;;;22.48;10.63;;;;;;;;;;4992144;28;20034;-71
2023/03/23 05:38:29;;;;;;;19.13;10.00;;;;;;;;;;4981126;28;20064;-70
2023/03/23 05:41:00;;;;;;;19.45;10.32;;;;;;;;;;4987623;28;20058;-69
2023/03/23 05:43:32;;;;;;;17.73;9.32;;;;;;;;;;5009000;28;20030;-70
2023/03/23 05:46:09;;;;;;;42.20;13.38;;;;;;;;;;5009405;28;20034;-69
2023/03/23 05:48:36;;;;;;;28.45;11.60;;;;;;;;;;5008943;28;20088;-69
2023/03/23 05:51:04;;;;;;;16.27;10.10;;;;;;;;;;5009584;28;20049;-69
2023/03/23 05:53:32;;;;;;;19.00;10.10;;;;;;;;;;5008463;28;20081;-69
2023/03/23 05:56:00;;;;;;;20.10;10.70;;;;;;;;;;5010590;28;20034;-70
2023/03/23 05:58:45;;;;;;;22.77;10.20;;;;;;;;;;5009249;28;20117;-70
2023/03/23 06:01:13;;;;;;;19.70;10.02;;;;;;;;;;5011095;28;20121;-70
2023/03/23 06:03:40;;;;;;;16.58;10.02;;;;;;;;;;4992232;28;20049;-71
2023/03/23 06:06:13;;;;;;;18.33;11.43;;;;;;;;;;4992749;28;20052;-70
2023/03/23 06:08:51;;;;;;;21.13;13.45;;;;;;;;;;5008430;28;20034;-70
2023/03/23 06:11:23;;;;;;;24.67;13.20;;;;;;;;;;4992815;28;20057;-70
2023/03/23 06:14:07;;;;;;;28.08;13.85;;;;;;;;;;4992698;28;20030;-69
2023/03/23 06:16:33;;;;;;;22.23;12.80;;;;;;;;;;5008713;28;20030;-70
2023/03/23 06:19:03;;;;;;;21.02;13.60;;;;;;;;;;4976106;28;20484;-70
2023/03/23 06:21:34;;;;;;;27.40;15.10;;;;;;;;;;5008983;28;20038;-70
2023/03/23 06:24:08;;;;;;;22.67;13.52;;;;;;;;;;5021736;28;20034;-71
2023/03/23 06:26:41;;;;;;;23.03;13.03;;;;;;;;;;5030726;28;20045;-70
2023/03/23 06:29:12;;;;;;;22.30;14.25;;;;;;;;;;5004739;28;20029;-71
2023/03/23 06:31:54;;;;;;;21.50;14.20;;;;;;;;;;4991429;28;20471;-72
2023/03/23 06:34:20;;;;;;;26.50;13.43;;;;;;;;;;4991298;28;20116;-71
2023/03/23 06:37:06;;;;;;;21.73;12.32;;;;;;;;;;4995007;28;20045;-70
2023/03/23 06:40:09;;;;;;;24.55;12.80;;;;;;;;;;4991627;28;20033;-70
2023/03/23 06:42:42;;;;;;;20.25;11.95;;;;;;;;;;4991093;28;20038;-70
2023/03/23 06:45:46;;;;;;;19.23;12.23;;;;;;;;;;4979790;28;20074;-70
2023/03/23 06:48:38;;;;;;;18.88;11.80;;;;;;;;;;4954168;28;20121;-70
2023/03/23 06:51:05;;;;;;;21.23;12.15;;;;;;;;;;4991985;28;20121;-70
2023/03/23 06:53:33;;;;;;;19.88;12.75;;;;;;;;;;5000139;28;20021;-71
2023/03/23 06:56:00;;;;;;;18.02;11.77;;;;;;;;;;4992579;28;20030;-70
2023/03/23 06:58:26;;;;;;;20.38;11.20;;;;;;;;;;4993048;28;20470;-71
2023/03/23 07:00:56;;;;;;;16.35;10.43;;;;;;;;;;5011056;28;20041;-71
2023/03/23 07:03:28;;;;;;;20.50;11.60;;;;;;;;;;5012558;28;20103;-71
2023/03/23 07:05:54;;;;;;;16.13;10.80;;;;;;;;;;4995883;28;20044;-69
2023/03/23 07:08:23;;;;;;;18.38;11.75;;;;;;;;;;4968016;28;20049;-71
2023/03/23 07:10:54;;;;;;;16.55;11.13;;;;;;;;;;4994552;28;20407;-71
2023/03/23 07:13:26;;;;;;;14.27;10.73;;;;;;;;;;5012006;28;20026;-71
2023/03/23 07:15:59;;;;;;;20.25;12.32;;;;;;;;;;5009925;28;20035;-71
2023/03/23 07:18:25;;;;;;;18.67;11.27;;;;;;;;;;5013008;28;20061;-72
2023/03/23 07:20:53;;;;;;;16.75;11.88;;;;;;;;;;4995257;28;20038;-71
2023/03/23 07:23:22;;;;;;;15.57;11.10;;;;;;;;;;4994780;28;20092;-71
2023/03/23 07:25:57;;;;;;;16.05;11.27;;;;;;;;;;4995148;28;20391;-71
2023/03/23 07:28:30;;;;;;;19.30;10.65;;;;;;;;;;4995295;28;20388;-71
2023/03/23 07:31:01;;;;;;;15.93;10.57;;;;;;;;;;4995712;28;20038;-70
2023/03/23 07:33:27;;;;;;;17.98;11.75;;;;;;;;;;4995475;28;20049;-71
2023/03/23 07:35:58;;;;;;;15.57;10.80;;;;;;;;;;4995128;28;20511;-70
2023/03/23 07:38:27;;;;;;;15.60;11.75;;;;;;;;;;4998163;28;20026;-69
2023/03/23 07:40:53;;;;;;;18.58;11.50;;;;;;;;;;4978394;28;20030;-70
2023/03/23 07:43:20;;;;;;;18.90;10.65;;;;;;;;;;5011423;28;20571;-71
2023/03/23 07:46:01;;;;;;;16.45;11.15;;;;;;;;;;4997502;28;20090;-70
2023/03/23 07:48:43;;;;;;;15.82;10.82;;;;;;;;;;5010252;28;20124;-70
2023/03/23 07:51:09;;;;;;;17.08;10.98;;;;;;;;;;4994585;28;20112;-71
2023/03/23 07:53:35;;;;;;;15.52;10.68;;;;;;;;;;5012180;28;20145;-71
2023/03/23 07:56:20;;;;;;;12.85;10.43;;;;;;;;;;5012684;28;20082;-71
2023/03/23 07:59:00;;;;;;;16.48;9.93;;;;;;;;;;5012262;28;20116;-70
2023/03/23 08:01:27;;;;;;;14.77;10.50;;;;;;;;;;5010640;28;20030;-71
2023/03/23 08:04:29;;;;;;;16.08;8.98;;;;;;;;;;4998040;28;20094;-70
2023/03/23 08:07:15;;;;;;;15.25;10.27;;;;;;;;;;4997567;28;20057;-71
2023/03/23 08:09:49;;;;;;;15.82;10.20;;;;;;;;;;5023476;28;20118;-70
2023/03/23 08:12:31;;;;;;;13.00;9.98;;;;;;;;;;5016527;28;20094;-73
2023/03/23 08:15:19;;;;;;;17.40;10.50;;;;;;;;;;5004417;28;20057;-70
2023/03/23 08:18:20;;;;;;;16.45;10.52;;;;;;;;;;4951342;29;20047;-70
2023/03/23 08:21:08;;;;;;;19.23;10.25;;;;;;;;;;5006334;28;20044;-72
2023/03/23 08:23:49;;;;;;;14.60;9.15;;;;;;;;;;5022277;28;20045;-71
2023/03/23 08:26:35;;;;;;;12.55;9.48;;;;;;;;;;4983501;28;20046;-71
2023/03/23 08:29:22;;;;;;;17.30;10.13;;;;;;;;;;5010322;28;20033;-71
2023/03/23 08:32:06;;;;;;;17.70;11.05;;;;;;;;;;5011936;28;20412;-71
2023/03/23 08:34:43;;;;;;;17.02;10.20;;;;;;;;;;5011581;28;20030;-70
2023/03/23 08:37:26;;;;;;;11.85;8.43;;;;;;;;;;4993689;28;20044;-70
2023/03/23 08:40:14;;;;;;;12.85;9.07;;;;;;;;;;5009489;28;20519;-72
2023/03/23 08:42:48;;;;;;;15.63;9.32;;;;;;;;;;4995028;28;20046;-71
2023/03/23 08:45:26;;;;;;;15.25;9.27;;;;;;;;;;5011100;28;20041;-72
2023/03/23 08:48:10;;;;;;;13.23;9.13;;;;;;;;;;4996499;28;20060;-71
2023/03/23 08:51:08;;;;;;;14.75;9.15;;;;;;;;;;4993393;28;20041;-71
2023/03/23 08:53:34;;;;;;;14.23;9.57;;;;;;;;;;5019307;28;20065;-71
2023/03/23 08:56:36;;;;;;;19.20;10.93;;;;;;;;;;4971713;28;20106;-71
2023/03/23 08:59:07;;;;;;;16.05;9.82;;;;;;;;;;5003675;28;20108;-72
2023/03/23 09:01:53;;;;;;;13.15;9.05;;;;;;;;;;4979980;28;20033;-72
2023/03/23 09:04:22;;;;;;;16.58;10.32;;;;;;;;;;5009517;28;20385;-72
2023/03/23 09:07:07;;;;;;;18.50;10.48;;;;;;;;;;5009099;28;20068;-71
2023/03/23 09:09:34;;;;;;;15.25;9.70;;;;;;;;;;5010227;28;20038;-71
2023/03/23 09:11:59;;;;;;;16.02;10.20;;;;;;;;;;5011063;28;20030;-71
2023/03/23 09:14:27;;;;;;;14.77;9.43;;;;;;;;;;5010099;28;20036;-72
2023/03/23 09:16:52;;;;;;;12.68;8.85;;;;;;;;;;4992959;28;20072;-72
2023/03/23 09:19:18;;;;;;;14.23;9.57;;;;;;;;;;5010202;28;20034;-72
2023/03/23 09:21:45;;;;;;;16.00;9.32;;;;;;;;;;4977122;28;20431;-72
2023/03/23 09:24:11;;;;;;;13.10;8.23;;;;;;;;;;5010538;28;20080;-71
2023/03/23 09:26:37;;;;;;;14.50;9.55;;;;;;;;;;5010830;28;20052;-73
2023/03/23 09:29:04;;;;;;;16.05;10.95;;;;;;;;;;5010127;28;20030;-72
2023/03/23 09:31:31;;;;;;;11.98;8.98;;;;;;;;;;5010298;28;20079;-72
2023/03/23 09:33:58;;;;;;;10.80;8.68;;;;;;;;;;5010270;28;20102;-72
2023/03/23 09:36:31;;;;;;;15.77;9.38;;;;;;;;;;5010087;28;20029;-72
2023/03/23 09:38:59;;;;;;;21.20;9.98;;;;;;;;;;5005377;28;20068;-71
2023/03/23 09:42:03;;;;;;;11.95;8.60;;;;;;;;;;4991426;28;20033;-71
2023/03/23 09:45:05;;;;;;;11.10;7.47;;;;;;;;;;5008512;28;20129;-71
2023/03/23 09:48:05;;;;;;;14.30;6.95;;;;;;;;;;4931434;29;20126;-71
2023/03/23 09:50:34;;;;;;;12.95;6.40;;;;;;;;;;4983683;28;20404;-71
2023/03/23 09:53:44;;;;;;;13.80;7.40;;;;;;;;;;5006470;28;20017;-71
2023/03/23 09:56:15;;;;;;;9.52;6.82;;;;;;;;;;5007881;28;20037;-70
2023/03/23 09:58:51;;;;;;;10.63;6.28;;;;;;;;;;5010249;28;20117;-70
2023/03/23 10:01:32;;;;;;;9.75;5.95;;;;;;;;;;5008942;28;20108;-70
2023/03/23 10:04:21;;;;;;;7.65;5.47;;;;;;;;;;5010434;28;20058;-72
2023/03/23 10:06:48;;;;;;;8.43;5.63;;;;;;;;;;4988209;28;20045;-71
2023/03/23 10:09:18;;;;;;;11.40;6.78;;;;;;;;;;5011856;28;20066;-71
2023/03/23 10:12:11;;;;;;;8.85;6.20;;;;;;;;;;5007521;28;20080;-71
2023/03/23 10:15:12;;;;;;;11.18;6.55;;;;;;;;;;4999963;28;20499;-71
2023/03/23 10:18:03;;;;;;;10.45;6.18;;;;;;;;;;4987149;28;20068;-71
2023/03/23 10:20:48;;;;;;;11.10;6.78;;;;;;;;;;5010078;28;20026;-70
2023/03/23 10:23:38;;;;;;;8.38;5.70;;;;;;;;;;5013930;28;20041;-70
2023/03/23 10:26:42;;;;;;;9.13;6.80;;;;;;;;;;5020039;28;20124;-70
2023/03/23 10:29:37;;;;;;;9.52;6.57;;;;;;;;;;5012447;28;20045;-70
2023/03/23 10:32:36;;;;;;;8.95;6.32;;;;;;;;;;5010213;28;20034;-71
2023/03/23 10:35:07;;;;;;;10.02;6.95;;;;;;;;;;5010743;28;20112;-71
2023/03/23 10:37:38;;;;;;;9.57;6.03;;;;;;;;;;5014188;28;20041;-69
2023/03/23 10:40:09;;;;;;;12.30;6.82;;;;;;;;;;5013444;28;20032;-70
2023/03/23 10:42:38;;;;;;;8.82;5.90;;;;;;;;;;5014163;28;20040;-71
2023/03/23 10:45:18;;;;;;;10.45;5.95;;;;;;;;;;4996667;28;20036;-71
2023/03/23 10:47:52;;;;;;;12.60;6.15;;;;;;;;;;5014872;28;20054;-70
2023/03/23 10:50:24;;;;;;;10.43;6.63;;;;;;;;;;5013746;28;20033;-70
2023/03/23 10:52:53;;;;;;;11.07;6.93;;;;;;;;;;5016510;28;20169;-71
2023/03/23 10:55:22;;;;;;;9.55;6.13;;;;;;;;;;5032663;28;20064;-71
2023/03/23 10:58:31;;;;;;;9.73;6.47;;;;;;;;;;5012620;28;20034;-70
2023/03/23 11:01:00;;;;;;;9.43;5.97;;;;;;;;;;5005889;28;20054;-70
2023/03/23 11:03:32;;;;;;;13.52;5.88;;;;;;;;;;5013779;28;20065;-71
2023/03/23 11:06:28;;;;;;;9.10;5.47;;;;;;;;;;5001214;28;20042;-72
2023/03/23 11:09:03;;;;;;;7.25;5.30;;;;;;;;;;4998339;28;20049;-70
2023/03/23 11:11:38;;;;;;;9.00;5.43;;;;;;;;;;5005747;28;20472;-71
2023/03/23 11:14:19;;;;;;;11.25;5.80;;;;;;;;;;5013563;28;20077;-70
2023/03/23 11:16:52;;;;;;;8.25;5.22;;;;;;;;;;5013416;28;20198;-70
2023/03/23 11:19:24;;;;;;;7.65;5.15;;;;;;;;;;5013048;28;20037;-70
2023/03/23 11:22:05;;;;;;;7.47;4.75;;;;;;;;;;5012664;28;20081;-71
2023/03/23 11:24:46;;;;;;;10.18;6.15;;;;;;;;;;4995922;28;20052;-72
2023/03/23 11:27:13;;;;;;;10.30;6.47;;;;;;;;;;5013571;28;20617;-72
2023/03/23 11:30:01;;;;;;;7.70;5.60;;;;;;;;;;5013303;28;20045;-72
2023/03/23 11:32:30;;;;;;;9.63;5.43;;;;;;;;;;5007780;28;20395;-71
2023/03/23 11:34:59;;;;;;;8.52;5.20;;;;;;;;;;5033413;28;20108;-71
2023/03/23 11:37:45;;;;;;;9.07;5.68;;;;;;;;;;5016714;28;20104;-71
2023/03/23 11:40:20;;;;;;;13.25;6.15;;;;;;;;;;5011367;28;20040;-70
2023/03/23 11:42:53;;;;;;;10.57;7.93;;;;;;;;;;5011607;28;20026;-71
2023/03/23 11:45:32;;;;;;;7.65;6.07;;;;;;;;;;5012065;28;20034;-71
2023/03/23 11:48:18;;;;;;;11.63;6.15;;;;;;;;;;5010906;28;20049;-72
2023/03/23 11:50:47;;;;;;;8.88;5.38;;;;;;;;;;5007353;28;20045;-71
2023/03/23 11:53:22;;;;;;;10.23;5.78;;;;;;;;;;5013393;28;20026;-72
2023/03/23 11:56:25;;;;;;;6.68;5.15;;;;;;;;;;5011906;28;20493;-71
2023/03/23 11:58:53;;;;;;;7.40;5.78;;;;;;;;;;4991133;28;20114;-70
2023/03/23 12:01:56;;;;;;;7.82;5.30;;;;;;;;;;5013042;28;20018;-71
2023/03/23 12:04:37;;;;;;;8.60;6.05;;;;;;;;;;5013486;28;20033;-72
2023/03/23 12:07:09;;;;;;;7.07;5.18;;;;;;;;;;5013375;28;20116;-72
2023/03/23 12:09:48;;;;;;;8.60;5.75;;;;;;;;;;5012429;28;20080;-71
2023/03/23 12:12:29;;;;;;;9.52;5.18;;;;;;;;;;5013271;28;20038;-71
2023/03/23 12:15:17;;;;;;;7.85;6.00;;;;;;;;;;4995613;28;20077;-71
2023/03/23 12:18:09;;;;;;;8.80;5.47;;;;;;;;;;5012946;28;20527;-71
2023/03/23 12:20:53;;;;;;;7.13;5.40;;;;;;;;;;5012367;28;20085;-71
2023/03/23 12:23:42;;;;;;;6.88;5.55;;;;;;;;;;5013052;28;20061;-72
2023/03/23 12:26:40;;;;;;;8.05;6.00;;;;;;;;;;5013157;28;20037;-71
2023/03/23 12:29:16;;;;;;;7.95;5.45;;;;;;;;;;5024186;28;20488;-71
2023/03/23 12:31:48;;;;;;;7.55;4.60;;;;;;;;;;5012703;28;20129;-72
2023/03/23 12:34:16;;;;;;;7.15;4.95;;;;;;;;;;5019115;28;20089;-71
2023/03/23 12:37:03;;;;;;;9.20;4.88;;;;;;;;;;5019253;28;20032;-72
2023/03/23 12:39:31;;;;;;;7.55;5.03;;;;;;;;;;4993155;28;20038;-71
2023/03/23 12:42:39;;;;;;;7.93;5.53;;;;;;;;;;4975533;28;20511;-73
2023/03/23 12:45:08;;;;;;;10.82;5.72;;;;;;;;;;4978591;28;20054;-70
2023/03/23 12:47:50;;;;;;;7.70;5.38;;;;;;;;;;4992527;28;20034;-71
2023/03/23 12:50:24;;;;;;;7.80;4.90;;;;;;;;;;4992396;28;20041;-70
2023/03/23 12:53:00;;;;;;;8.15;5.22;;;;;;;;;;5008410;28;20061;-70
2023/03/23 12:56:05;;;;;;;8.48;5.18;;;;;;;;;;4992898;28;20070;-71
2023/03/23 12:58:34;;;;;;;7.65;5.80;;;;;;;;;;4971647;28;20211;-70
2023/03/23 13:01:04;;;;;;;11.95;6.05;;;;;;;;;;4992724;28;20036;-71
2023/03/23 13:03:45;;;;;;;13.57;6.70;;;;;;;;;;4995914;28;20273;-71
2023/03/23 13:06:23;;;;;;;7.05;4.63;;;;;;;;;;5011672;28;20038;-73
2023/03/23 13:08:56;;;;;;;7.80;5.00;;;;;;;;;;5011365;28;20041;-70
2023/03/23 13:11:33;;;;;;;6.50;4.30;;;;;;;;;;5010724;28;20503;-71
2023/03/23 13:14:36;;;;;;;7.00;5.07;;;;;;;;;;4995065;28;20034;-72
2023/03/23 13:17:35;;;;;;;10.13;5.97;;;;;;;;;;5011659;28;20116;-71
2023/03/23 13:20:31;;;;;;;8.45;5.55;;;;;;;;;;5011197;28;20496;-72
2023/03/23 13:22:59;;;;;;;7.95;5.22;;;;;;;;;;5010843;28;20038;-71
2023/03/23 13:25:56;;;;;;;10.05;5.95;;;;;;;;;;4993423;28;20418;-72
2023/03/23 13:28:28;;;;;;;12.65;5.72;;;;;;;;;;5011511;28;20037;-70
2023/03/23 13:30:57;;;;;;;11.73;5.22;;;;;;;;;;5011179;28;20040;-71
2023/03/23 13:33:22;;;;;;;7.78;5.38;;;;;;;;;;4992585;28;20030;-71
2023/03/23 13:35:51;;;;;;;10.38;6.00;;;;;;;;;;5011325;28;20476;-71
2023/03/23 13:38:31;;;;;;;7.85;4.85;;;;;;;;;;5011735;28;20306;-71
2023/03/23 13:40:57;;;;;;;6.68;5.25;;;;;;;;;;5011555;28;20029;-71
2023/03/23 13:43:34;;;;;;;15.73;10.00;;;;;;;;;;5011662;28;20496;-71
2023/03/23 13:46:07;;;;;;;9.38;6.40;;;;;;;;;;5011905;28;20042;-71
2023/03/23 13:49:03;;;;;;;10.52;6.53;;;;;;;;;;5011346;28;20539;-72
2023/03/23 13:51:46;;;;;;;8.18;5.00;;;;;;;;;;5012233;28;20519;-72
2023/03/23 13:54:12;;;;;;;7.65;5.82;;;;;;;;;;5009812;28;20341;-72
2023/03/23 13:57:03;;;;;;;7.57;5.15;;;;;;;;;;5011207;28;20037;-73
2023/03/23 13:59:31;;;;;;;9.00;5.53;;;;;;;;;;5009558;28;20038;-72
2023/03/23 14:02:37;;;;;;;9.82;4.97;;;;;;;;;;5011344;28;20034;-72
2023/03/23 14:05:21;;;;;;;7.20;4.90;;;;;;;;;;5010302;28;20048;-72
2023/03/23 14:08:01;;;;;;;8.63;6.10;;;;;;;;;;5011886;28;20056;-71
2023/03/23 14:10:42;;;;;;;7.28;5.38;;;;;;;;;;5014927;28;20049;-72
2023/03/23 14:13:20;;;;;;;6.88;5.20;;;;;;;;;;5015214;28;20048;-71
2023/03/23 14:16:03;;;;;;;7.57;4.82;;;;;;;;;;4997572;28;20440;-70
2023/03/23 14:18:36;;;;;;;7.30;5.07;;;;;;;;;;5014374;28;20400;-71
2023/03/23 14:21:03;;;;;;;8.68;5.50;;;;;;;;;;5013490;28;20084;-71
2023/03/23 14:23:34;;;;;;;8.57;4.97;;;;;;;;;;5014577;28;20386;-71
2023/03/23 14:26:07;;;;;;;12.82;5.63;;;;;;;;;;5013937;28;20030;-71
2023/03/23 14:28:44;;;;;;;7.25;5.32;;;;;;;;;;4997527;28;20121;-73
2023/03/23 14:31:29;;;;;;;8.05;5.20;;;;;;;;;;5014685;28;20140;-72
2023/03/23 14:34:00;;;;;;;7.03;5.53;;;;;;;;;;5014796;28;20506;-72
2023/03/23 14:36:29;;;;;;;7.40;5.45;;;;;;;;;;5015172;28;20387;-72
2023/03/23 14:39:13;;;;;;;8.23;5.53;;;;;;;;;;5013887;28;20062;-72
2023/03/23 14:41:40;;;;;;;9.05;5.63;;;;;;;;;;5007305;28;20034;-72
2023/03/23 14:44:09;;;;;;;7.97;5.38;;;;;;;;;;5014498;28;20038;-72
2023/03/23 14:46:35;;;;;;;7.47;5.35;;;;;;;;;;5014628;28;20592;-72
2023/03/23 14:49:04;;;;;;;7.97;5.88;;;;;;;;;;5012716;28;20389;-72
2023/03/23 14:51:30;;;;;;;9.10;5.68;;;;;;;;;;4996961;28;20112;-72
2023/03/23 14:53:59;;;;;;;7.10;5.55;;;;;;;;;;4999716;28;20068;-72
2023/03/23 14:56:34;;;;;;;9.32;6.00;;;;;;;;;;5014135;28;20062;-71
2023/03/23 14:59:05;;;;;;;7.55;5.65;;;;;;;;;;4996608;28;20034;-71
2023/03/23 15:01:33;;;;;;;7.80;5.68;;;;;;;;;;5014241;28;20038;-72
2023/03/23 15:04:11;;;;;;;8.68;6.05;;;;;;;;;;4996446;28;20026;-71
2023/03/23 15:06:39;;;;;;;10.25;6.18;;;;;;;;;;4996362;28;20067;-72
2023/03/23 15:09:11;;;;;;;8.38;5.65;;;;;;;;;;5017028;28;20104;-72
2023/03/23 15:11:42;;;;;;;9.52;5.30;;;;;;;;;;5014199;28;20034;-73
2023/03/23 15:14:22;;;;;;;7.30;5.53;;;;;;;;;;5013463;28;20034;-73